Corystes — GHRU — position and weather

sailwx.info

Track history (hours):
 
Tides and Currents Weather Stations Pressure Air Temp Water Temp Dewpoint Dewpoint Depression Visibility Wind Speed Wind Dir Waves Ship Positions

Oceanographic research ship Corystes (UK)

Detailed information on ship capabilities available from University of Delaware's Ocean Information Center.

Last reported at 2018-Feb-25 06:00 UTC. Time now 2018-Feb-25 06:15 UTC.
Position N 54°47' W 005°39'.

Length 53 m; draft 5.2 m.

Type: Cargo ship. MMSI: 233558000.

Date/timePositionNaut miles runAvg speedWind from/ knotsBaromVisibWave heightAir tempDewpointWater temp
2018-Feb-25 06:00N 54°47' W 005°39'1 2.8
2018-Feb-25 05:30N 54°48' W 005°40'1 2.8
2018-Feb-25 05:00N 54°50' W 005°40'1 2.6
2018-Feb-25 04:30N 54°51' W 005°41'21 6.9
2018-Feb-25 01:31N 55°09' W 005°59'110.3
2018-Feb-25 01:22N 55°10' W 006°00'410.4
2018-Feb-25 01:00N 55°13' W 006°05'611.2
2018-Feb-25 00:30N 55°15' W 006°14'5 9.9
2018-Feb-25 00:00N 55°16' W 006°22'5 9.3
2018-Feb-24 23:30N 55°16' W 006°30'5 9.1
2018-Feb-24 23:00N 55°16' W 006°38'5 9.0
2018-Feb-24 22:30N 55°15' W 006°46'4 7.5
2018-Feb-24 21:59N 55°15' W 006°53'0 0.2
2018-Feb-24 21:29N 55°15' W 006°53'0 0.0
2018-Feb-24 20:59N 55°15' W 006°53'0 0.0
2018-Feb-24 20:29N 55°15' W 006°53'0 0.0
2018-Feb-24 19:59N 55°15' W 006°53'0 0.0
2018-Feb-24 19:29N 55°15' W 006°53'0 0.0
2018-Feb-24 18:59N 55°15' W 006°53'0 0.0
2018-Feb-24 18:23N 55°15' W 006°53'0 0.1
2018-Feb-24 17:59N 55°15' W 006°53'0 0.0
2018-Feb-24 17:29N 55°15' W 006°53'0 0.0
2018-Feb-24 16:59N 55°15' W 006°53'0 0.1
2018-Feb-24 16:29N 55°15' W 006°53'0 0.1
2018-Feb-24 15:59N 55°15' W 006°53'0 0.0
2018-Feb-24 15:29N 55°15' W 006°53'0 0.0
2018-Feb-24 14:59N 55°15' W 006°53'0 0.0
2018-Feb-24 14:29N 55°15' W 006°53'0 0.1
2018-Feb-24 13:59N 55°15' W 006°53'0 0.1
2018-Feb-24 13:29N 55°15' W 006°53'0 0.1
2018-Feb-24 12:59N 55°15' W 006°53'0 0.0
2018-Feb-24 12:29N 55°15' W 006°53'0 0.0
2018-Feb-24 11:59N 55°15' W 006°53'0 0.0
2018-Feb-24 11:26N 55°15' W 006°53'0 0.0
2018-Feb-24 10:59N 55°15' W 006°53'0 0.0
2018-Feb-24 10:02N 55°15' W 006°53'0 0.2
2018-Feb-24 09:59N 55°15' W 006°53'0 0.0
2018-Feb-24 09:29N 55°15' W 006°53'1 2.0
2018-Feb-24 09:00N 55°14' W 006°53'4 8.5
2018-Feb-24 08:30N 55°11' W 006°47'3 6.6
2018-Feb-24 08:00N 55°13' W 006°42'3 6.7
2018-Feb-24 07:30N 55°14' W 006°37'3 5.1
2018-Feb-24 07:00N 55°14' W 006°33'4 7.0
2018-Feb-24 06:30N 55°15' W 006°27'4 7.5
2018-Feb-24 06:00N 55°17' W 006°22'4 7.9
2018-Feb-24 05:30N 55°19' W 006°16'2 4.4
2018-Feb-24 05:00N 55°18' W 006°19'3 5.2
2018-Feb-24 04:29N 55°17' W 006°14'3 7.0
2018-Feb-24 04:00N 55°14' W 006°12'3 5.5
2018-Feb-24 03:30N 55°14' W 006°08'2 4.0
2018-Feb-24 03:00N 55°13' W 006°05'3 6.8
2018-Feb-24 02:30N 55°11' W 006°00'9 8.4
2018-Feb-24 01:24N 55°02' W 005°56'2 5.2
2018-Feb-24 00:56N 54°59' W 005°56'8 5.1
2018-Feb-23 23:22N 54°55' W 005°45'3 4.4
2018-Feb-23 22:47N 54°52' W 005°45'310.1
2018-Feb-23 22:30N 54°50' W 005°41'510.2
2018-Feb-23 22:00N 54°45' W 005°40'3 5.1
2018-Feb-23 21:30N 54°43' W 005°41'4 7.2
2018-Feb-23 21:00N 54°45' W 005°36'2 4.6
2018-Feb-23 20:30N 54°43' W 005°36'3 5.5
2018-Feb-23 20:00N 54°43' W 005°31'510.0
2018-Feb-23 19:30N 54°39' W 005°26'2 5.0
2018-Feb-23 19:00N 54°39' W 005°30'4 8.1
2018-Feb-23 18:30N 54°35' W 005°27'3 6.9
2018-Feb-23 18:00N 54°32' W 005°26'611.4
2018-Feb-23 17:30N 54°26' W 005°24'510.1
2018-Feb-23 17:00N 54°21' W 005°26'3 6.9
2018-Feb-23 16:30N 54°19' W 005°29'5 9.1
2018-Feb-23 15:58N 54°15' W 005°35'4 9.0
2018-Feb-23 15:30N 54°13' W 005°41'3 5.1
2018-Feb-23 15:00N 54°13' W 005°46'3 6.3
2018-Feb-23 14:30N 54°12' W 005°50'5 8.8
2018-Feb-23 13:59N 54°07' W 005°51'3 6.6
2018-Feb-23 13:30N 54°05' W 005°54'3 6.7
2018-Feb-23 13:00N 54°02' W 005°58'4 8.1
2018-Feb-23 12:30N 53°60' W 006°03'0 0.3
2018-Feb-23 12:00N 53°60' W 006°03'0 0.1
2018-Feb-23 11:30N 53°60' W 006°03'0 0.4
2018-Feb-23 11:00N 53°59' W 006°03'0 0.4
2018-Feb-23 10:30N 53°60' W 006°03'0 0.4
2018-Feb-23 10:00N 53°60' W 006°03'0 0.0
2018-Feb-23 09:30N 53°60' W 006°03'0 0.6
2018-Feb-23 09:00N 53°59' W 006°03'0 0.5
2018-Feb-23 08:30N 53°60' W 006°03'0 0.4
2018-Feb-23 08:00N 53°60' W 006°03'0 0.1
2018-Feb-23 07:30N 53°60' W 006°03'0 0.0
2018-Feb-23 07:00N 53°60' W 006°03'0 0.1
2018-Feb-23 06:30N 53°60' W 006°03'0 0.1
2018-Feb-23 06:00N 53°60' W 006°03'0 0.1
2018-Feb-23 05:31N 53°60' W 006°03'0 0.0
2018-Feb-23 05:00N 53°60' W 006°03'0 0.1
2018-Feb-23 04:30N 53°60' W 006°03'0 0.2
2018-Feb-23 04:00N 53°60' W 006°03'0 0.3
2018-Feb-23 03:30N 53°60' W 006°03'0 0.1
2018-Feb-23 03:00N 53°60' W 006°03'0 0.2
2018-Feb-23 02:30N 53°60' W 006°03'0 0.3
2018-Feb-23 02:00N 53°60' W 006°03'0 0.1
2018-Feb-23 01:30N 53°60' W 006°03'0 0.2
2018-Feb-23 01:00N 53°60' W 006°03'0 0.1
2018-Feb-23 00:30N 53°60' W 006°03'0 0.2
2018-Feb-23 00:00N 53°60' W 006°03'3 6.7
2018-Feb-22 23:30N 54°01' W 005°58'5 9.7
2018-Feb-22 23:00N 54°04' W 005°51'3 6.8
2018-Feb-22 22:31N 54°06' W 005°47'3 6.7
2018-Feb-22 22:00N 54°06' W 005°41'3 7.0
2018-Feb-22 21:30N 54°06' W 005°35'3 5.8
2018-Feb-22 21:00N 54°06' W 005°30'5 9.9
2018-Feb-22 20:28N 54°06' W 005°21'18 4.1
2018-Feb-22 16:01N 54°21' W 005°03'010.2
2018-Feb-22 16:00N 54°21' W 005°03'4 6.8
2018-Feb-22 15:24N 54°21' W 005°10'4 9.1
2018-Feb-22 15:00N 54°21' W 005°16'3 5.9
2018-Feb-22 14:30N 54°21' W 005°21'2 3.6
2018-Feb-22 14:00N 54°21' W 005°24'5 9.9
2018-Feb-22 13:30N 54°24' W 005°18'5 9.8
2018-Feb-22 13:00N 54°27' W 005°11'5 9.5
2018-Feb-22 12:30N 54°30' W 005°04'4 9.0
2018-Feb-22 12:00N 54°33' W 004°58'5 9.3
2018-Feb-22 11:30N 54°35' W 005°05'510.1
2018-Feb-22 11:00N 54°38' W 005°12'5 9.9
2018-Feb-22 10:30N 54°41' W 005°19'2 4.5
2018-Feb-22 10:00N 54°43' W 005°21'5 9.5
2018-Feb-22 09:30N 54°47' W 005°23'5 9.3
2018-Feb-22 09:00N 54°52' W 005°26'20 8.3
2018-Feb-22 06:38N 55°09' W 005°43'1 7.3
2018-Feb-22 06:28N 55°09' W 005°45'3 6.9
2018-Feb-22 06:00N 55°11' W 005°49'3 6.9
2018-Feb-22 05:30N 55°14' W 005°54'1 1.2
2018-Feb-22 05:00N 55°14' W 005°55'3 5.9
2018-Feb-22 04:30N 55°15' W 005°60'3 6.6
2018-Feb-22 04:00N 55°17' W 006°04'4 8.2
2018-Feb-22 03:30N 55°19' W 006°10'2 3.4
2018-Feb-22 03:00N 55°20' W 006°13'611.7
2018-Feb-22 02:30N 55°20' W 006°23'611.7
2018-Feb-22 02:00N 55°20' W 006°34'4 7.6
2018-Feb-22 01:25N 55°22' W 006°41'511.7
2018-Feb-22 00:59N 55°24' W 006°49'612.1
2018-Feb-22 00:28N 55°27' W 006°59'13 9.3
2018-Feb-21 23:07N 55°26' W 007°21'2 6.4
2018-Feb-21 22:49N 55°26' W 007°24'511.4
2018-Feb-21 22:22N 55°26' W 007°33'511.1
2018-Feb-21 21:55N 55°25' W 007°42'3 5.9
2018-Feb-21 21:29N 55°26' W 007°46'610.4
2018-Feb-21 20:55N 55°29' W 007°55'910.2
2018-Feb-21 20:04N 55°33' W 008°09'210.2
2018-Feb-21 19:50N 55°34' W 008°12'2 5.3
2018-Feb-21 19:30N 55°35' W 008°15'7 9.0
2018-Feb-21 18:41N 55°29' W 008°22'210.5
2018-Feb-21 18:30N 55°27' W 008°24'710.5
2018-Feb-21 17:53N 55°22' W 008°30'5 5.7
2018-Feb-21 17:05N 55°19' W 008°36'310.4
2018-Feb-21 16:48N 55°20' W 008°41'410.1
2018-Feb-21 16:27N 55°23' W 008°46'26 8.3
2018-Feb-21 13:18N 55°48' W 008°32'48 5.5
2018-Feb-21 04:32N 55°47' W 007°07'210.7
2018-Feb-21 04:22N 55°46' W 007°05'3 7.5
2018-Feb-21 04:00N 55°45' W 007°00'4 7.4
2018-Feb-21 03:30N 55°43' W 006°54'510.9
2018-Feb-21 03:00N 55°41' W 006°46'611.0
2018-Feb-21 02:30N 55°38' W 006°37'2 4.7
2018-Feb-21 02:00N 55°37' W 006°34'5 9.1
2018-Feb-21 01:30N 55°34' W 006°27'5 9.6
2018-Feb-21 01:00N 55°32' W 006°20'4 8.7
2018-Feb-21 00:30N 55°29' W 006°14'2 3.2
2018-Feb-21 00:00N 55°28' W 006°12'4 7.6
2018-Feb-20 23:30N 55°26' W 006°06'4 7.4
2018-Feb-20 23:00N 55°25' W 006°00'4 7.3
2018-Feb-20 22:30N 55°22' W 005°55'1 2.5
2018-Feb-20 22:00N 55°21' W 005°54'4 6.7
2018-Feb-20 21:27N 55°18' W 005°51'3 6.3
2018-Feb-20 21:00N 55°16' W 005°48'6 9.2
2018-Feb-20 20:18N 55°10' W 005°44'3 7.4
2018-Feb-20 19:58N 55°08' W 005°41'11 7.5
2018-Feb-20 18:28N 54°58' W 005°32'612.0
2018-Feb-20 18:00N 54°53' W 005°27'4 8.2
2018-Feb-20 17:30N 54°50' W 005°23'4 7.7
2018-Feb-20 17:00N 54°46' W 005°23'611.4
2018-Feb-20 16:30N 54°40' W 005°22'611.4
2018-Feb-20 16:00N 54°34' W 005°21'611.2
2018-Feb-20 15:30N 54°29' W 005°20'611.0
2018-Feb-20 15:00N 54°23' W 005°20'510.3
2018-Feb-20 14:30N 54°18' W 005°22'810.1
2018-Feb-20 13:43N 54°11' W 005°26'4510.4
2018-Feb-20 09:24N 53°27' W 005°42'410.4
2018-Feb-20 09:00N 53°23' W 005°44'2 3.7
2018-Feb-20 08:30N 53°21' W 005°42'3 6.3
2018-Feb-20 07:59N 53°21' W 005°37'56 8.3
2018-Feb-20 01:14N 53°27' W 004°04'2 9.9
2018-Feb-20 01:00N 53°28' W 004°00'5 9.5
2018-Feb-20 00:30N 53°30' W 003°53'4 8.7
2018-Feb-20 00:00N 53°31' W 003°46'4 8.7
2018-Feb-19 23:30N 53°33' W 003°39'4 8.2
2018-Feb-19 23:00N 53°33' W 003°32'4 8.2
2018-Feb-19 22:30N 53°32' W 003°25'1 2.3
2018-Feb-19 22:00N 53°32' W 003°23'510.0
2018-Feb-19 21:30N 53°36' W 003°29'611.1
2018-Feb-19 21:00N 53°40' W 003°34'610.6
2018-Feb-19 20:25N 53°46' W 003°40'3 7.5
2018-Feb-19 20:00N 53°46' W 003°46'65 4.1
2018-Feb-19 04:19N 54°10' W 005°28'7 8.8
2018-Feb-19 03:34N 54°16' W 005°24'1 8.5
2018-Feb-19 03:30N 54°16' W 005°24'4 8.4
2018-Feb-19 03:00N 54°20' W 005°22'4 8.2
2018-Feb-19 02:30N 54°24' W 005°21'4 8.1
2018-Feb-19 02:00N 54°28' W 005°22'4 8.5
2018-Feb-19 01:30N 54°33' W 005°23'4 8.6
2018-Feb-19 01:00N 54°37' W 005°25'5 9.0
2018-Feb-19 00:30N 54°41' W 005°27'4 8.4
2018-Feb-19 00:00N 54°43' W 005°34'5 9.2
2018-Feb-18 23:30N 54°42' W 005°42'4 8.9
2018-Feb-18 23:00N 54°41' W 005°49'4 8.1
2018-Feb-18 22:29N 54°37' W 005°54'1 0.3
2018-Feb-18 17:56N 54°36' W 005°55'0 0.0
2018-Feb-18 07:17N 54°36' W 005°55'0 0.0
2018-Feb-17 13:22N 54°36' W 005°55'0 0.0
2018-Feb-16 00:33N 54°36' W 005°55'0 0.0
2018-Feb-16 00:12N 54°36' W 005°55'0 0.0
2018-Feb-15 20:18N 54°36' W 005°55'0 0.0
2018-Feb-15 15:51N 54°36' W 005°55'0 0.0
2018-Feb-15 10:18N 54°36' W 005°55'0 0.0
2018-Feb-15 08:36N 54°36' W 005°55'0 0.0
2018-Feb-15 08:12N 54°36' W 005°55'0 0.0
2018-Feb-15 07:44N 54°36' W 005°55'  
Track history (hours):
 
Tides and Currents Weather Stations Pressure Air Temp Water Temp Dewpoint Dewpoint Depression Visibility Wind Speed Wind Dir Waves Ship Positions

Oceanographic research ship Corystes (UK)

Detailed information on ship capabilities available from University of Delaware's Ocean Information Center.

Last reported at 2018-Feb-25 06:00 UTC. Time now 2018-Feb-25 06:15 UTC.
Position N 54°47' W 005°39'.

Length 53 m; draft 5.2 m.

Type: Cargo ship. MMSI: 233558000.

Date/timePositionNaut miles runAvg speedWind from/ knotsBaromVisibWave heightAir tempDewpointWater temp
2018-Feb-25 06:00N 54°47' W 005°39'1 2.8
2018-Feb-25 05:30N 54°48' W 005°40'1 2.8
2018-Feb-25 05:00N 54°50' W 005°40'1 2.6
2018-Feb-25 04:30N 54°51' W 005°41'21 6.9
2018-Feb-25 01:31N 55°09' W 005°59'110.3
2018-Feb-25 01:22N 55°10' W 006°00'410.4
2018-Feb-25 01:00N 55°13' W 006°05'611.2
2018-Feb-25 00:30N 55°15' W 006°14'5 9.9
2018-Feb-25 00:00N 55°16' W 006°22'5 9.3
2018-Feb-24 23:30N 55°16' W 006°30'5 9.1
2018-Feb-24 23:00N 55°16' W 006°38'5 9.0
2018-Feb-24 22:30N 55°15' W 006°46'4 7.5
2018-Feb-24 21:59N 55°15' W 006°53'0 0.2
2018-Feb-24 21:29N 55°15' W 006°53'0 0.0
2018-Feb-24 20:59N 55°15' W 006°53'0 0.0
2018-Feb-24 20:29N 55°15' W 006°53'0 0.0
2018-Feb-24 19:59N 55°15' W 006°53'0 0.0
2018-Feb-24 19:29N 55°15' W 006°53'0 0.0
2018-Feb-24 18:59N 55°15' W 006°53'0 0.0
2018-Feb-24 18:23N 55°15' W 006°53'0 0.1
2018-Feb-24 17:59N 55°15' W 006°53'0 0.0
2018-Feb-24 17:29N 55°15' W 006°53'0 0.0
2018-Feb-24 16:59N 55°15' W 006°53'0 0.1
2018-Feb-24 16:29N 55°15' W 006°53'0 0.1
2018-Feb-24 15:59N 55°15' W 006°53'0 0.0
2018-Feb-24 15:29N 55°15' W 006°53'0 0.0
2018-Feb-24 14:59N 55°15' W 006°53'0 0.0
2018-Feb-24 14:29N 55°15' W 006°53'0 0.1
2018-Feb-24 13:59N 55°15' W 006°53'0 0.1
2018-Feb-24 13:29N 55°15' W 006°53'0 0.1
2018-Feb-24 12:59N 55°15' W 006°53'0 0.0
2018-Feb-24 12:29N 55°15' W 006°53'0 0.0
2018-Feb-24 11:59N 55°15' W 006°53'0 0.0
2018-Feb-24 11:26N 55°15' W 006°53'0 0.0
2018-Feb-24 10:59N 55°15' W 006°53'0 0.0
2018-Feb-24 10:02N 55°15' W 006°53'0 0.2
2018-Feb-24 09:59N 55°15' W 006°53'0 0.0
2018-Feb-24 09:29N 55°15' W 006°53'1 2.0
2018-Feb-24 09:00N 55°14' W 006°53'4 8.5
2018-Feb-24 08:30N 55°11' W 006°47'3 6.6
2018-Feb-24 08:00N 55°13' W 006°42'3 6.7
2018-Feb-24 07:30N 55°14' W 006°37'3 5.1
2018-Feb-24 07:00N 55°14' W 006°33'4 7.0
2018-Feb-24 06:30N 55°15' W 006°27'4 7.5
2018-Feb-24 06:00N 55°17' W 006°22'4 7.9
2018-Feb-24 05:30N 55°19' W 006°16'2 4.4
2018-Feb-24 05:00N 55°18' W 006°19'3 5.2
2018-Feb-24 04:29N 55°17' W 006°14'3 7.0
2018-Feb-24 04:00N 55°14' W 006°12'3 5.5
2018-Feb-24 03:30N 55°14' W 006°08'2 4.0
2018-Feb-24 03:00N 55°13' W 006°05'3 6.8
2018-Feb-24 02:30N 55°11' W 006°00'9 8.4
2018-Feb-24 01:24N 55°02' W 005°56'2 5.2
2018-Feb-24 00:56N 54°59' W 005°56'8 5.1
2018-Feb-23 23:22N 54°55' W 005°45'3 4.4
2018-Feb-23 22:47N 54°52' W 005°45'310.1
2018-Feb-23 22:30N 54°50' W 005°41'510.2
2018-Feb-23 22:00N 54°45' W 005°40'3 5.1
2018-Feb-23 21:30N 54°43' W 005°41'4 7.2
2018-Feb-23 21:00N 54°45' W 005°36'2 4.6
2018-Feb-23 20:30N 54°43' W 005°36'3 5.5
2018-Feb-23 20:00N 54°43' W 005°31'510.0
2018-Feb-23 19:30N 54°39' W 005°26'2 5.0
2018-Feb-23 19:00N 54°39' W 005°30'4 8.1
2018-Feb-23 18:30N 54°35' W 005°27'3 6.9
2018-Feb-23 18:00N 54°32' W 005°26'611.4
2018-Feb-23 17:30N 54°26' W 005°24'510.1
2018-Feb-23 17:00N 54°21' W 005°26'3 6.9
2018-Feb-23 16:30N 54°19' W 005°29'5 9.1
2018-Feb-23 15:58N 54°15' W 005°35'4 9.0
2018-Feb-23 15:30N 54°13' W 005°41'3 5.1
2018-Feb-23 15:00N 54°13' W 005°46'3 6.3
2018-Feb-23 14:30N 54°12' W 005°50'5 8.8
2018-Feb-23 13:59N 54°07' W 005°51'3 6.6
2018-Feb-23 13:30N 54°05' W 005°54'3 6.7
2018-Feb-23 13:00N 54°02' W 005°58'4 8.1
2018-Feb-23 12:30N 53°60' W 006°03'0 0.3
2018-Feb-23 12:00N 53°60' W 006°03'0 0.1
2018-Feb-23 11:30N 53°60' W 006°03'0 0.4
2018-Feb-23 11:00N 53°59' W 006°03'0 0.4
2018-Feb-23 10:30N 53°60' W 006°03'0 0.4
2018-Feb-23 10:00N 53°60' W 006°03'0 0.0
2018-Feb-23 09:30N 53°60' W 006°03'0 0.6
2018-Feb-23 09:00N 53°59' W 006°03'0 0.5
2018-Feb-23 08:30N 53°60' W 006°03'0 0.4
2018-Feb-23 08:00N 53°60' W 006°03'0 0.1
2018-Feb-23 07:30N 53°60' W 006°03'0 0.0
2018-Feb-23 07:00N 53°60' W 006°03'0 0.1
2018-Feb-23 06:30N 53°60' W 006°03'0 0.1
2018-Feb-23 06:00N 53°60' W 006°03'0 0.1
2018-Feb-23 05:31N 53°60' W 006°03'0 0.0
2018-Feb-23 05:00N 53°60' W 006°03'0 0.1
2018-Feb-23 04:30N 53°60' W 006°03'0 0.2
2018-Feb-23 04:00N 53°60' W 006°03'0 0.3
2018-Feb-23 03:30N 53°60' W 006°03'0 0.1
2018-Feb-23 03:00N 53°60' W 006°03'0 0.2
2018-Feb-23 02:30N 53°60' W 006°03'0 0.3
2018-Feb-23 02:00N 53°60' W 006°03'0 0.1
2018-Feb-23 01:30N 53°60' W 006°03'0 0.2
2018-Feb-23 01:00N 53°60' W 006°03'0 0.1
2018-Feb-23 00:30N 53°60' W 006°03'0 0.2
2018-Feb-23 00:00N 53°60' W 006°03'3 6.7
2018-Feb-22 23:30N 54°01' W 005°58'5 9.7
2018-Feb-22 23:00N 54°04' W 005°51'3 6.8
2018-Feb-22 22:31N 54°06' W 005°47'3 6.7
2018-Feb-22 22:00N 54°06' W 005°41'3 7.0
2018-Feb-22 21:30N 54°06' W 005°35'3 5.8
2018-Feb-22 21:00N 54°06' W 005°30'5 9.9
2018-Feb-22 20:28N 54°06' W 005°21'18 4.1
2018-Feb-22 16:01N 54°21' W 005°03'010.2
2018-Feb-22 16:00N 54°21' W 005°03'4 6.8
2018-Feb-22 15:24N 54°21' W 005°10'4 9.1
2018-Feb-22 15:00N 54°21' W 005°16'3 5.9
2018-Feb-22 14:30N 54°21' W 005°21'2 3.6
2018-Feb-22 14:00N 54°21' W 005°24'5 9.9
2018-Feb-22 13:30N 54°24' W 005°18'5 9.8
2018-Feb-22 13:00N 54°27' W 005°11'5 9.5
2018-Feb-22 12:30N 54°30' W 005°04'4 9.0
2018-Feb-22 12:00N 54°33' W 004°58'5 9.3
2018-Feb-22 11:30N 54°35' W 005°05'510.1
2018-Feb-22 11:00N 54°38' W 005°12'5 9.9
2018-Feb-22 10:30N 54°41' W 005°19'2 4.5
2018-Feb-22 10:00N 54°43' W 005°21'5 9.5
2018-Feb-22 09:30N 54°47' W 005°23'5 9.3
2018-Feb-22 09:00N 54°52' W 005°26'20 8.3
2018-Feb-22 06:38N 55°09' W 005°43'1 7.3
2018-Feb-22 06:28N 55°09' W 005°45'3 6.9
2018-Feb-22 06:00N 55°11' W 005°49'3 6.9
2018-Feb-22 05:30N 55°14' W 005°54'1 1.2
2018-Feb-22 05:00N 55°14' W 005°55'3 5.9
2018-Feb-22 04:30N 55°15' W 005°60'3 6.6
2018-Feb-22 04:00N 55°17' W 006°04'4 8.2
2018-Feb-22 03:30N 55°19' W 006°10'2 3.4
2018-Feb-22 03:00N 55°20' W 006°13'611.7
2018-Feb-22 02:30N 55°20' W 006°23'611.7
2018-Feb-22 02:00N 55°20' W 006°34'4 7.6
2018-Feb-22 01:25N 55°22' W 006°41'511.7
2018-Feb-22 00:59N 55°24' W 006°49'612.1
2018-Feb-22 00:28N 55°27' W 006°59'13 9.3
2018-Feb-21 23:07N 55°26' W 007°21'2 6.4
2018-Feb-21 22:49N 55°26' W 007°24'511.4
2018-Feb-21 22:22N 55°26' W 007°33'511.1
2018-Feb-21 21:55N 55°25' W 007°42'3 5.9
2018-Feb-21 21:29N 55°26' W 007°46'610.4
2018-Feb-21 20:55N 55°29' W 007°55'910.2
2018-Feb-21 20:04N 55°33' W 008°09'210.2
2018-Feb-21 19:50N 55°34' W 008°12'2 5.3
2018-Feb-21 19:30N 55°35' W 008°15'7 9.0
2018-Feb-21 18:41N 55°29' W 008°22'210.5
2018-Feb-21 18:30N 55°27' W 008°24'710.5
2018-Feb-21 17:53N 55°22' W 008°30'5 5.7
2018-Feb-21 17:05N 55°19' W 008°36'310.4
2018-Feb-21 16:48N 55°20' W 008°41'410.1
2018-Feb-21 16:27N 55°23' W 008°46'26 8.3
2018-Feb-21 13:18N 55°48' W 008°32'48 5.5
2018-Feb-21 04:32N 55°47' W 007°07'210.7
2018-Feb-21 04:22N 55°46' W 007°05'3 7.5
2018-Feb-21 04:00N 55°45' W 007°00'4 7.4
2018-Feb-21 03:30N 55°43' W 006°54'510.9
2018-Feb-21 03:00N 55°41' W 006°46'611.0
2018-Feb-21 02:30N 55°38' W 006°37'2 4.7
2018-Feb-21 02:00N 55°37' W 006°34'5 9.1
2018-Feb-21 01:30N 55°34' W 006°27'5 9.6
2018-Feb-21 01:00N 55°32' W 006°20'4 8.7
2018-Feb-21 00:30N 55°29' W 006°14'2 3.2
2018-Feb-21 00:00N 55°28' W 006°12'4 7.6
2018-Feb-20 23:30N 55°26' W 006°06'4 7.4
2018-Feb-20 23:00N 55°25' W 006°00'4 7.3
2018-Feb-20 22:30N 55°22' W 005°55'1 2.5
2018-Feb-20 22:00N 55°21' W 005°54'4 6.7
2018-Feb-20 21:27N 55°18' W 005°51'3 6.3
2018-Feb-20 21:00N 55°16' W 005°48'6 9.2
2018-Feb-20 20:18N 55°10' W 005°44'3 7.4
2018-Feb-20 19:58N 55°08' W 005°41'11 7.5
2018-Feb-20 18:28N 54°58' W 005°32'612.0
2018-Feb-20 18:00N 54°53' W 005°27'4 8.2
2018-Feb-20 17:30N 54°50' W 005°23'4 7.7
2018-Feb-20 17:00N 54°46' W 005°23'611.4
2018-Feb-20 16:30N 54°40' W 005°22'611.4
2018-Feb-20 16:00N 54°34' W 005°21'611.2
2018-Feb-20 15:30N 54°29' W 005°20'611.0
2018-Feb-20 15:00N 54°23' W 005°20'510.3
2018-Feb-20 14:30N 54°18' W 005°22'810.1
2018-Feb-20 13:43N 54°11' W 005°26'4510.4
2018-Feb-20 09:24N 53°27' W 005°42'410.4
2018-Feb-20 09:00N 53°23' W 005°44'2 3.7
2018-Feb-20 08:30N 53°21' W 005°42'3 6.3
2018-Feb-20 07:59N 53°21' W 005°37'56 8.3
2018-Feb-20 01:14N 53°27' W 004°04'2 9.9
2018-Feb-20 01:00N 53°28' W 004°00'5 9.5
2018-Feb-20 00:30N 53°30' W 003°53'4 8.7
2018-Feb-20 00:00N 53°31' W 003°46'4 8.7
2018-Feb-19 23:30N 53°33' W 003°39'4 8.2
2018-Feb-19 23:00N 53°33' W 003°32'4 8.2
2018-Feb-19 22:30N 53°32' W 003°25'1 2.3
2018-Feb-19 22:00N 53°32' W 003°23'510.0
2018-Feb-19 21:30N 53°36' W 003°29'611.1
2018-Feb-19 21:00N 53°40' W 003°34'610.6
2018-Feb-19 20:25N 53°46' W 003°40'3 7.5
2018-Feb-19 20:00N 53°46' W 003°46'65 4.1
2018-Feb-19 04:19N 54°10' W 005°28'7 8.8
2018-Feb-19 03:34N 54°16' W 005°24'1 8.5
2018-Feb-19 03:30N 54°16' W 005°24'4 8.4
2018-Feb-19 03:00N 54°20' W 005°22'4 8.2
2018-Feb-19 02:30N 54°24' W 005°21'4 8.1
2018-Feb-19 02:00N 54°28' W 005°22'4 8.5
2018-Feb-19 01:30N 54°33' W 005°23'4 8.6
2018-Feb-19 01:00N 54°37' W 005°25'5 9.0
2018-Feb-19 00:30N 54°41' W 005°27'4 8.4
2018-Feb-19 00:00N 54°43' W 005°34'5 9.2
2018-Feb-18 23:30N 54°42' W 005°42'4 8.9
2018-Feb-18 23:00N 54°41' W 005°49'4 8.1
2018-Feb-18 22:29N 54°37' W 005°54'1 0.3
2018-Feb-18 17:56N 54°36' W 005°55'0 0.0
2018-Feb-18 07:17N 54°36' W 005°55'0 0.0
2018-Feb-17 13:22N 54°36' W 005°55'0 0.0
2018-Feb-16 00:33N 54°36' W 005°55'0 0.0
2018-Feb-16 00:12N 54°36' W 005°55'0 0.0
2018-Feb-15 20:18N 54°36' W 005°55'0 0.0
2018-Feb-15 15:51N 54°36' W 005°55'0 0.0
2018-Feb-15 10:18N 54°36' W 005°55'0 0.0
2018-Feb-15 08:36N 54°36' W 005°55'0 0.0
2018-Feb-15 08:12N 54°36' W 005°55'0 0.0
2018-Feb-15 07:44N 54°36' W 005°55'  

Dump ship's entire track history